sensor_id;sensor_type;location;lat;lon;timestamp;P1;durP1;ratioP1;P2;durP2;ratioP2
33830;SDS011;20137;48.834;8.732;2023-06-22T00:00:54;18.38;;;10.98;;
33830;SDS011;20137;48.834;8.732;2023-06-22T00:03:20;15.13;;;9.75;;
33830;SDS011;20137;48.834;8.732;2023-06-22T00:05:47;14.45;;;10.35;;
33830;SDS011;20137;48.834;8.732;2023-06-22T00:08:14;16.70;;;10.18;;
33830;SDS011;20137;48.834;8.732;2023-06-22T00:10:40;14.80;;;9.55;;
33830;SDS011;20137;48.834;8.732;2023-06-22T00:13:07;14.98;;;10.48;;
33830;SDS011;20137;48.834;8.732;2023-06-22T00:15:34;16.08;;;10.40;;
33830;SDS011;20137;48.834;8.732;2023-06-22T00:18:00;14.95;;;9.15;;
33830;SDS011;20137;48.834;8.732;2023-06-22T00:20:27;14.50;;;11.20;;
33830;SDS011;20137;48.834;8.732;2023-06-22T00:22:54;14.98;;;10.50;;
33830;SDS011;20137;48.834;8.732;2023-06-22T00:25:20;15.43;;;10.30;;
33830;SDS011;20137;48.834;8.732;2023-06-22T00:27:46;16.23;;;10.45;;
33830;SDS011;20137;48.834;8.732;2023-06-22T00:30:12;15.52;;;10.32;;
33830;SDS011;20137;48.834;8.732;2023-06-22T00:32:38;11.70;;;9.60;;
33830;SDS011;20137;48.834;8.732;2023-06-22T00:35:05;17.10;;;10.80;;
33830;SDS011;20137;48.834;8.732;2023-06-22T00:37:31;15.18;;;9.65;;
33830;SDS011;20137;48.834;8.732;2023-06-22T00:39:56;16.73;;;10.68;;
33830;SDS011;20137;48.834;8.732;2023-06-22T00:42:22;15.13;;;10.50;;
33830;SDS011;20137;48.834;8.732;2023-06-22T00:44:48;12.23;;;9.30;;
33830;SDS011;20137;48.834;8.732;2023-06-22T00:47:14;12.77;;;9.30;;
33830;SDS011;20137;48.834;8.732;2023-06-22T00:49:42;14.95;;;9.93;;
33830;SDS011;20137;48.834;8.732;2023-06-22T00:52:09;14.63;;;10.10;;
33830;SDS011;20137;48.834;8.732;2023-06-22T00:54:38;13.40;;;9.30;;
33830;SDS011;20137;48.834;8.732;2023-06-22T00:57:14;14.07;;;10.05;;
33830;SDS011;20137;48.834;8.732;2023-06-22T00:59:46;13.50;;;9.95;;
33830;SDS011;20137;48.834;8.732;2023-06-22T01:02:13;12.88;;;9.38;;
33830;SDS011;20137;48.834;8.732;2023-06-22T01:04:40;15.45;;;10.10;;
33830;SDS011;20137;48.834;8.732;2023-06-22T01:09:52;18.15;;;10.02;;
33830;SDS011;20137;48.834;8.732;2023-06-22T01:12:31;17.75;;;9.90;;
33830;SDS011;20137;48.834;8.732;2023-06-22T01:15:04;15.13;;;10.32;;
33830;SDS011;20137;48.834;8.732;2023-06-22T01:17:35;13.85;;;10.77;;
33830;SDS011;20137;48.834;8.732;2023-06-22T01:20:02;16.25;;;10.15;;
33830;SDS011;20137;48.834;8.732;2023-06-22T01:22:33;18.50;;;10.90;;
33830;SDS011;20137;48.834;8.732;2023-06-22T01:25:21;17.92;;;10.07;;
33830;SDS011;20137;48.834;8.732;2023-06-22T01:27:59;15.57;;;10.05;;
33830;SDS011;20137;48.834;8.732;2023-06-22T01:30:49;17.42;;;10.90;;
33830;SDS011;20137;48.834;8.732;2023-06-22T01:33:25;17.42;;;10.40;;
33830;SDS011;20137;48.834;8.732;2023-06-22T01:35:52;17.48;;;11.05;;
33830;SDS011;20137;48.834;8.732;2023-06-22T01:38:17;17.33;;;11.35;;
33830;SDS011;20137;48.834;8.732;2023-06-22T01:40:43;16.40;;;10.90;;
33830;SDS011;20137;48.834;8.732;2023-06-22T01:43:09;15.90;;;10.48;;
33830;SDS011;20137;48.834;8.732;2023-06-22T01:45:35;17.25;;;10.45;;
33830;SDS011;20137;48.834;8.732;2023-06-22T01:48:01;17.67;;;10.68;;
33830;SDS011;20137;48.834;8.732;2023-06-22T01:50:27;15.20;;;10.55;;
33830;SDS011;20137;48.834;8.732;2023-06-22T01:52:54;15.18;;;10.98;;
33830;SDS011;20137;48.834;8.732;2023-06-22T01:55:20;17.90;;;10.55;;
33830;SDS011;20137;48.834;8.732;2023-06-22T01:57:45;13.77;;;10.77;;
33830;SDS011;20137;48.834;8.732;2023-06-22T02:00:12;16.70;;;10.98;;
33830;SDS011;20137;48.834;8.732;2023-06-22T02:05:20;13.27;;;10.10;;
33830;SDS011;20137;48.834;8.732;2023-06-22T02:08:10;16.40;;;10.73;;
33830;SDS011;20137;48.834;8.732;2023-06-22T02:10:43;14.18;;;10.48;;
33830;SDS011;20137;48.834;8.732;2023-06-22T02:13:10;17.30;;;11.23;;
33830;SDS011;20137;48.834;8.732;2023-06-22T02:15:37;17.70;;;11.55;;
33830;SDS011;20137;48.834;8.732;2023-06-22T02:18:03;17.15;;;11.88;;
33830;SDS011;20137;48.834;8.732;2023-06-22T02:20:30;14.98;;;10.65;;
33830;SDS011;20137;48.834;8.732;2023-06-22T02:22:55;17.30;;;11.48;;
33830;SDS011;20137;48.834;8.732;2023-06-22T02:25:21;20.88;;;11.48;;
33830;SDS011;20137;48.834;8.732;2023-06-22T02:27:47;15.70;;;10.43;;
33830;SDS011;20137;48.834;8.732;2023-06-22T02:30:14;17.15;;;10.35;;
33830;SDS011;20137;48.834;8.732;2023-06-22T02:32:41;16.35;;;10.75;;
33830;SDS011;20137;48.834;8.732;2023-06-22T02:35:07;15.43;;;10.88;;
33830;SDS011;20137;48.834;8.732;2023-06-22T02:37:35;16.52;;;11.93;;
33830;SDS011;20137;48.834;8.732;2023-06-22T02:40:06;18.08;;;11.63;;
33830;SDS011;20137;48.834;8.732;2023-06-22T02:42:34;16.48;;;11.88;;
33830;SDS011;20137;48.834;8.732;2023-06-22T02:45:00;17.00;;;11.77;;
33830;SDS011;20137;48.834;8.732;2023-06-22T02:47:26;16.83;;;11.82;;
33830;SDS011;20137;48.834;8.732;2023-06-22T02:49:52;21.77;;;13.23;;
33830;SDS011;20137;48.834;8.732;2023-06-22T02:52:17;16.83;;;11.77;;
33830;SDS011;20137;48.834;8.732;2023-06-22T02:54:43;17.85;;;11.35;;
33830;SDS011;20137;48.834;8.732;2023-06-22T02:57:11;20.33;;;12.27;;
33830;SDS011;20137;48.834;8.732;2023-06-22T02:59:39;18.08;;;13.18;;
33830;SDS011;20137;48.834;8.732;2023-06-22T03:02:08;19.55;;;12.82;;
33830;SDS011;20137;48.834;8.732;2023-06-22T03:04:35;26.55;;;15.00;;
33830;SDS011;20137;48.834;8.732;2023-06-22T03:07:01;24.23;;;14.95;;
33830;SDS011;20137;48.834;8.732;2023-06-22T03:09:27;20.73;;;14.18;;
33830;SDS011;20137;48.834;8.732;2023-06-22T03:11:54;24.38;;;14.50;;
33830;SDS011;20137;48.834;8.732;2023-06-22T03:14:19;19.00;;;14.55;;
33830;SDS011;20137;48.834;8.732;2023-06-22T03:16:45;22.95;;;14.05;;
33830;SDS011;20137;48.834;8.732;2023-06-22T03:19:11;27.20;;;13.98;;
33830;SDS011;20137;48.834;8.732;2023-06-22T03:21:37;20.42;;;13.70;;
33830;SDS011;20137;48.834;8.732;2023-06-22T03:24:06;20.40;;;14.45;;
33830;SDS011;20137;48.834;8.732;2023-06-22T03:26:35;20.88;;;14.25;;
33830;SDS011;20137;48.834;8.732;2023-06-22T03:29:01;19.73;;;12.98;;
33830;SDS011;20137;48.834;8.732;2023-06-22T03:31:26;22.23;;;13.45;;
33830;SDS011;20137;48.834;8.732;2023-06-22T03:33:52;18.60;;;13.15;;
33830;SDS011;20137;48.834;8.732;2023-06-22T03:36:18;21.52;;;13.43;;
33830;SDS011;20137;48.834;8.732;2023-06-22T03:38:47;18.75;;;12.70;;
33830;SDS011;20137;48.834;8.732;2023-06-22T03:41:13;25.08;;;14.32;;
33830;SDS011;20137;48.834;8.732;2023-06-22T03:43:39;21.90;;;14.05;;
33830;SDS011;20137;48.834;8.732;2023-06-22T03:46:05;22.15;;;15.00;;
33830;SDS011;20137;48.834;8.732;2023-06-22T03:48:31;22.77;;;14.30;;
33830;SDS011;20137;48.834;8.732;2023-06-22T03:50:59;19.80;;;13.63;;
33830;SDS011;20137;48.834;8.732;2023-06-22T03:53:25;19.65;;;13.30;;
33830;SDS011;20137;48.834;8.732;2023-06-22T03:55:51;17.73;;;13.10;;
33830;SDS011;20137;48.834;8.732;2023-06-22T03:58:18;17.13;;;11.55;;
33830;SDS011;20137;48.834;8.732;2023-06-22T04:00:48;20.10;;;13.10;;
33830;SDS011;20137;48.834;8.732;2023-06-22T04:03:17;20.65;;;13.02;;
33830;SDS011;20137;48.834;8.732;2023-06-22T04:05:43;17.60;;;11.90;;
33830;SDS011;20137;48.834;8.732;2023-06-22T04:08:09;23.05;;;12.88;;
33830;SDS011;20137;48.834;8.732;2023-06-22T04:10:37;19.50;;;12.35;;
33830;SDS011;20137;48.834;8.732;2023-06-22T04:13:03;16.58;;;11.35;;
33830;SDS011;20137;48.834;8.732;2023-06-22T04:15:29;20.27;;;11.68;;
33830;SDS011;20137;48.834;8.732;2023-06-22T04:17:55;16.48;;;10.93;;
33830;SDS011;20137;48.834;8.732;2023-06-22T04:20:21;16.80;;;10.68;;
33830;SDS011;20137;48.834;8.732;2023-06-22T04:22:47;15.77;;;10.60;;
33830;SDS011;20137;48.834;8.732;2023-06-22T04:25:13;16.98;;;10.88;;
33830;SDS011;20137;48.834;8.732;2023-06-22T04:27:40;15.52;;;10.63;;
33830;SDS011;20137;48.834;8.732;2023-06-22T04:30:06;16.92;;;10.43;;
33830;SDS011;20137;48.834;8.732;2023-06-22T04:32:33;18.98;;;11.85;;
33830;SDS011;20137;48.834;8.732;2023-06-22T04:35:04;17.55;;;11.65;;
33830;SDS011;20137;48.834;8.732;2023-06-22T04:37:31;14.25;;;10.77;;
33830;SDS011;20137;48.834;8.732;2023-06-22T04:39:58;15.63;;;10.52;;
33830;SDS011;20137;48.834;8.732;2023-06-22T04:42:27;16.02;;;11.43;;
33830;SDS011;20137;48.834;8.732;2023-06-22T04:44:53;16.38;;;10.73;;
33830;SDS011;20137;48.834;8.732;2023-06-22T04:47:19;18.23;;;11.98;;
33830;SDS011;20137;48.834;8.732;2023-06-22T04:49:45;16.10;;;11.43;;
33830;SDS011;20137;48.834;8.732;2023-06-22T04:52:12;16.83;;;10.48;;
33830;SDS011;20137;48.834;8.732;2023-06-22T04:54:39;14.23;;;8.60;;
33830;SDS011;20137;48.834;8.732;2023-06-22T04:57:12;17.35;;;10.82;;
33830;SDS011;20137;48.834;8.732;2023-06-22T04:59:38;13.32;;;8.88;;
33830;SDS011;20137;48.834;8.732;2023-06-22T05:02:06;12.60;;;9.48;;
33830;SDS011;20137;48.834;8.732;2023-06-22T05:04:33;14.88;;;8.77;;
33830;SDS011;20137;48.834;8.732;2023-06-22T05:07:05;14.32;;;9.48;;
33830;SDS011;20137;48.834;8.732;2023-06-22T05:09:32;13.93;;;9.80;;
33830;SDS011;20137;48.834;8.732;2023-06-22T05:11:58;10.20;;;7.88;;
33830;SDS011;20137;48.834;8.732;2023-06-22T05:14:27;13.27;;;8.48;;
33830;SDS011;20137;48.834;8.732;2023-06-22T05:16:53;13.63;;;8.60;;
33830;SDS011;20137;48.834;8.732;2023-06-22T05:19:18;12.77;;;9.32;;
33830;SDS011;20137;48.834;8.732;2023-06-22T05:21:44;12.43;;;8.68;;
33830;SDS011;20137;48.834;8.732;2023-06-22T05:24:10;11.60;;;8.10;;
33830;SDS011;20137;48.834;8.732;2023-06-22T05:26:36;17.95;;;8.98;;
33830;SDS011;20137;48.834;8.732;2023-06-22T05:29:02;11.13;;;8.20;;
33830;SDS011;20137;48.834;8.732;2023-06-22T05:31:28;11.35;;;8.27;;
33830;SDS011;20137;48.834;8.732;2023-06-22T05:33:55;12.70;;;9.23;;
33830;SDS011;20137;48.834;8.732;2023-06-22T05:36:21;13.40;;;8.40;;
33830;SDS011;20137;48.834;8.732;2023-06-22T05:38:50;13.82;;;8.35;;
33830;SDS011;20137;48.834;8.732;2023-06-22T05:41:16;13.43;;;8.85;;
33830;SDS011;20137;48.834;8.732;2023-06-22T05:43:42;12.70;;;8.48;;
33830;SDS011;20137;48.834;8.732;2023-06-22T05:46:08;10.52;;;8.02;;
33830;SDS011;20137;48.834;8.732;2023-06-22T05:48:34;11.70;;;8.30;;
33830;SDS011;20137;48.834;8.732;2023-06-22T05:50:59;13.85;;;7.60;;
33830;SDS011;20137;48.834;8.732;2023-06-22T05:53:25;12.02;;;8.52;;
33830;SDS011;20137;48.834;8.732;2023-06-22T05:55:51;12.73;;;9.00;;
33830;SDS011;20137;48.834;8.732;2023-06-22T05:58:17;17.38;;;9.23;;
33830;SDS011;20137;48.834;8.732;2023-06-22T06:00:44;15.60;;;8.20;;
33830;SDS011;20137;48.834;8.732;2023-06-22T06:03:11;11.98;;;8.13;;
33830;SDS011;20137;48.834;8.732;2023-06-22T06:05:37;16.98;;;8.32;;
33830;SDS011;20137;48.834;8.732;2023-06-22T06:08:03;13.80;;;7.60;;
33830;SDS011;20137;48.834;8.732;2023-06-22T06:10:31;14.02;;;7.32;;
33830;SDS011;20137;48.834;8.732;2023-06-22T06:12:57;12.15;;;7.38;;
33830;SDS011;20137;48.834;8.732;2023-06-22T06:15:23;12.93;;;7.57;;
33830;SDS011;20137;48.834;8.732;2023-06-22T06:17:50;13.18;;;7.75;;
33830;SDS011;20137;48.834;8.732;2023-06-22T06:20:18;10.50;;;6.53;;
33830;SDS011;20137;48.834;8.732;2023-06-22T06:22:45;11.18;;;7.95;;
33830;SDS011;20137;48.834;8.732;2023-06-22T06:25:12;15.23;;;7.68;;
33830;SDS011;20137;48.834;8.732;2023-06-22T06:27:45;11.80;;;7.50;;
33830;SDS011;20137;48.834;8.732;2023-06-22T06:30:12;13.93;;;7.28;;
33830;SDS011;20137;48.834;8.732;2023-06-22T06:32:39;12.88;;;7.47;;
33830;SDS011;20137;48.834;8.732;2023-06-22T06:35:06;11.65;;;6.95;;
33830;SDS011;20137;48.834;8.732;2023-06-22T06:37:35;9.32;;;6.47;;
33830;SDS011;20137;48.834;8.732;2023-06-22T06:40:03;13.48;;;7.50;;
33830;SDS011;20137;48.834;8.732;2023-06-22T06:42:37;11.02;;;7.13;;
33830;SDS011;20137;48.834;8.732;2023-06-22T06:45:05;11.73;;;6.95;;
33830;SDS011;20137;48.834;8.732;2023-06-22T06:47:31;9.75;;;6.88;;
33830;SDS011;20137;48.834;8.732;2023-06-22T06:49:57;13.07;;;7.60;;
33830;SDS011;20137;48.834;8.732;2023-06-22T06:52:23;11.40;;;7.13;;
33830;SDS011;20137;48.834;8.732;2023-06-22T06:54:49;12.48;;;6.55;;
33830;SDS011;20137;48.834;8.732;2023-06-22T06:57:17;12.63;;;6.50;;
33830;SDS011;20137;48.834;8.732;2023-06-22T06:59:43;11.77;;;7.03;;
33830;SDS011;20137;48.834;8.732;2023-06-22T07:02:12;9.48;;;6.03;;
33830;SDS011;20137;48.834;8.732;2023-06-22T07:04:39;11.98;;;6.88;;
33830;SDS011;20137;48.834;8.732;2023-06-22T07:07:05;11.02;;;6.40;;
33830;SDS011;20137;48.834;8.732;2023-06-22T07:09:31;11.93;;;6.80;;
33830;SDS011;20137;48.834;8.732;2023-06-22T07:11:57;12.73;;;6.32;;
33830;SDS011;20137;48.834;8.732;2023-06-22T07:14:22;12.57;;;6.32;;
33830;SDS011;20137;48.834;8.732;2023-06-22T07:16:48;13.15;;;7.47;;
33830;SDS011;20137;48.834;8.732;2023-06-22T07:19:14;17.25;;;6.75;;
33830;SDS011;20137;48.834;8.732;2023-06-22T07:21:40;13.68;;;7.18;;
33830;SDS011;20137;48.834;8.732;2023-06-22T07:24:06;11.68;;;6.65;;
33830;SDS011;20137;48.834;8.732;2023-06-22T07:26:33;11.13;;;6.55;;
33830;SDS011;20137;48.834;8.732;2023-06-22T07:28:59;16.10;;;7.25;;
33830;SDS011;20137;48.834;8.732;2023-06-22T07:31:25;12.63;;;7.85;;
33830;SDS011;20137;48.834;8.732;2023-06-22T07:33:51;15.18;;;7.85;;
33830;SDS011;20137;48.834;8.732;2023-06-22T07:36:17;15.10;;;8.20;;
33830;SDS011;20137;48.834;8.732;2023-06-22T07:38:43;13.90;;;6.72;;
33830;SDS011;20137;48.834;8.732;2023-06-22T07:41:09;12.32;;;7.00;;
33830;SDS011;20137;48.834;8.732;2023-06-22T07:43:35;9.57;;;6.35;;
33830;SDS011;20137;48.834;8.732;2023-06-22T07:46:05;12.65;;;6.80;;
33830;SDS011;20137;48.834;8.732;2023-06-22T07:48:31;11.68;;;5.82;;
33830;SDS011;20137;48.834;8.732;2023-06-22T07:50:57;14.45;;;6.43;;
33830;SDS011;20137;48.834;8.732;2023-06-22T07:53:22;13.40;;;6.40;;
33830;SDS011;20137;48.834;8.732;2023-06-22T07:55:49;11.70;;;6.90;;
33830;SDS011;20137;48.834;8.732;2023-06-22T07:58:15;14.57;;;6.50;;
33830;SDS011;20137;48.834;8.732;2023-06-22T08:00:41;10.98;;;6.55;;
33830;SDS011;20137;48.834;8.732;2023-06-22T08:03:07;9.93;;;6.18;;
33830;SDS011;20137;48.834;8.732;2023-06-22T08:05:32;8.95;;;5.38;;
33830;SDS011;20137;48.834;8.732;2023-06-22T08:07:58;10.13;;;5.68;;
33830;SDS011;20137;48.834;8.732;2023-06-22T08:10:24;15.77;;;6.43;;
33830;SDS011;20137;48.834;8.732;2023-06-22T08:12:50;13.60;;;6.70;;
33830;SDS011;20137;48.834;8.732;2023-06-22T08:15:17;11.88;;;6.05;;
33830;SDS011;20137;48.834;8.732;2023-06-22T08:17:44;13.27;;;5.90;;
33830;SDS011;20137;48.834;8.732;2023-06-22T08:20:11;13.73;;;6.07;;
33830;SDS011;20137;48.834;8.732;2023-06-22T08:22:37;14.18;;;6.15;;
33830;SDS011;20137;48.834;8.732;2023-06-22T08:25:04;9.70;;;5.55;;
33830;SDS011;20137;48.834;8.732;2023-06-22T08:27:31;9.38;;;5.88;;
33830;SDS011;20137;48.834;8.732;2023-06-22T08:29:58;9.63;;;5.78;;
33830;SDS011;20137;48.834;8.732;2023-06-22T08:32:29;14.25;;;5.97;;
33830;SDS011;20137;48.834;8.732;2023-06-22T08:34:57;11.63;;;6.07;;
33830;SDS011;20137;48.834;8.732;2023-06-22T08:37:23;12.82;;;6.30;;
33830;SDS011;20137;48.834;8.732;2023-06-22T08:39:56;11.25;;;5.70;;
33830;SDS011;20137;48.834;8.732;2023-06-22T08:42:23;12.82;;;5.88;;
33830;SDS011;20137;48.834;8.732;2023-06-22T08:44:49;15.57;;;6.10;;
33830;SDS011;20137;48.834;8.732;2023-06-22T08:47:15;11.93;;;5.95;;
33830;SDS011;20137;48.834;8.732;2023-06-22T08:49:41;15.07;;;6.47;;
33830;SDS011;20137;48.834;8.732;2023-06-22T08:52:07;13.57;;;6.25;;
33830;SDS011;20137;48.834;8.732;2023-06-22T08:54:33;11.95;;;6.00;;
33830;SDS011;20137;48.834;8.732;2023-06-22T08:57:00;14.32;;;5.72;;
33830;SDS011;20137;48.834;8.732;2023-06-22T08:59:26;15.00;;;5.78;;
33830;SDS011;20137;48.834;8.732;2023-06-22T09:01:52;18.20;;;6.30;;
33830;SDS011;20137;48.834;8.732;2023-06-22T09:04:18;13.25;;;5.80;;
33830;SDS011;20137;48.834;8.732;2023-06-22T09:06:47;13.30;;;5.65;;
33830;SDS011;20137;48.834;8.732;2023-06-22T09:09:15;11.38;;;6.40;;
33830;SDS011;20137;48.834;8.732;2023-06-22T09:11:41;10.98;;;5.85;;
33830;SDS011;20137;48.834;8.732;2023-06-22T09:14:07;15.02;;;6.30;;
33830;SDS011;20137;48.834;8.732;2023-06-22T09:16:34;15.63;;;6.72;;
33830;SDS011;20137;48.834;8.732;2023-06-22T09:19:00;12.63;;;6.38;;
33830;SDS011;20137;48.834;8.732;2023-06-22T09:21:26;15.27;;;6.05;;
33830;SDS011;20137;48.834;8.732;2023-06-22T09:23:52;11.70;;;6.05;;
33830;SDS011;20137;48.834;8.732;2023-06-22T09:26:18;10.75;;;5.55;;
33830;SDS011;20137;48.834;8.732;2023-06-22T09:28:44;13.48;;;6.75;;
33830;SDS011;20137;48.834;8.732;2023-06-22T09:31:10;14.15;;;6.70;;
33830;SDS011;20137;48.834;8.732;2023-06-22T09:33:36;13.13;;;6.70;;
33830;SDS011;20137;48.834;8.732;2023-06-22T09:36:05;11.32;;;5.88;;
33830;SDS011;20137;48.834;8.732;2023-06-22T09:38:34;11.68;;;6.10;;
33830;SDS011;20137;48.834;8.732;2023-06-22T09:41:04;13.05;;;6.13;;
33830;SDS011;20137;48.834;8.732;2023-06-22T09:43:31;12.30;;;6.55;;
33830;SDS011;20137;48.834;8.732;2023-06-22T09:45:57;12.93;;;6.13;;
33830;SDS011;20137;48.834;8.732;2023-06-22T09:48:23;14.55;;;5.55;;
33830;SDS011;20137;48.834;8.732;2023-06-22T09:50:49;13.25;;;6.03;;
33830;SDS011;20137;48.834;8.732;2023-06-22T09:53:15;14.55;;;5.93;;
33830;SDS011;20137;48.834;8.732;2023-06-22T09:55:41;10.45;;;5.82;;
33830;SDS011;20137;48.834;8.732;2023-06-22T09:58:06;12.98;;;6.18;;
33830;SDS011;20137;48.834;8.732;2023-06-22T10:00:33;13.20;;;5.80;;
33830;SDS011;20137;48.834;8.732;2023-06-22T10:02:59;13.68;;;6.63;;
33830;SDS011;20137;48.834;8.732;2023-06-22T10:05:28;13.68;;;6.10;;
33830;SDS011;20137;48.834;8.732;2023-06-22T10:07:54;12.93;;;5.55;;
33830;SDS011;20137;48.834;8.732;2023-06-22T10:10:20;11.95;;;5.85;;
33830;SDS011;20137;48.834;8.732;2023-06-22T10:12:46;8.88;;;5.72;;
33830;SDS011;20137;48.834;8.732;2023-06-22T10:15:14;16.25;;;6.25;;
33830;SDS011;20137;48.834;8.732;2023-06-22T10:17:40;11.63;;;6.00;;
33830;SDS011;20137;48.834;8.732;2023-06-22T10:20:06;11.80;;;5.88;;
33830;SDS011;20137;48.834;8.732;2023-06-22T10:22:42;17.67;;;8.45;;
33830;SDS011;20137;48.834;8.732;2023-06-22T10:25:09;17.60;;;6.30;;
33830;SDS011;20137;48.834;8.732;2023-06-22T10:27:36;13.93;;;6.43;;
33830;SDS011;20137;48.834;8.732;2023-06-22T10:30:05;12.27;;;5.35;;
33830;SDS011;20137;48.834;8.732;2023-06-22T10:32:31;17.20;;;6.72;;
33830;SDS011;20137;48.834;8.732;2023-06-22T10:34:58;12.65;;;6.38;;
33830;SDS011;20137;48.834;8.732;2023-06-22T10:37:23;15.15;;;7.03;;
33830;SDS011;20137;48.834;8.732;2023-06-22T10:39:49;12.85;;;6.68;;
33830;SDS011;20137;48.834;8.732;2023-06-22T10:42:15;15.38;;;6.35;;
33830;SDS011;20137;48.834;8.732;2023-06-22T10:44:41;16.42;;;6.65;;
33830;SDS011;20137;48.834;8.732;2023-06-22T10:47:09;17.70;;;6.47;;
33830;SDS011;20137;48.834;8.732;2023-06-22T10:49:36;12.70;;;6.07;;
33830;SDS011;20137;48.834;8.732;2023-06-22T10:52:07;12.50;;;6.68;;
33830;SDS011;20137;48.834;8.732;2023-06-22T10:54:34;16.63;;;6.88;;
33830;SDS011;20137;48.834;8.732;2023-06-22T10:57:01;14.65;;;6.18;;
33830;SDS011;20137;48.834;8.732;2023-06-22T10:59:27;15.65;;;6.95;;
33830;SDS011;20137;48.834;8.732;2023-06-22T11:01:54;13.85;;;6.60;;
33830;SDS011;20137;48.834;8.732;2023-06-22T11:04:20;11.80;;;6.80;;
33830;SDS011;20137;48.834;8.732;2023-06-22T11:06:47;10.85;;;6.53;;
33830;SDS011;20137;48.834;8.732;2023-06-22T11:09:13;15.02;;;6.55;;
33830;SDS011;20137;48.834;8.732;2023-06-22T11:11:44;18.75;;;6.43;;
33830;SDS011;20137;48.834;8.732;2023-06-22T11:14:10;14.43;;;6.28;;
33830;SDS011;20137;48.834;8.732;2023-06-22T11:16:36;15.02;;;6.65;;
33830;SDS011;20137;48.834;8.732;2023-06-22T11:19:04;16.55;;;6.47;;
33830;SDS011;20137;48.834;8.732;2023-06-22T11:21:30;20.05;;;6.68;;
33830;SDS011;20137;48.834;8.732;2023-06-22T11:23:56;15.07;;;6.97;;
33830;SDS011;20137;48.834;8.732;2023-06-22T11:26:22;14.00;;;7.05;;
33830;SDS011;20137;48.834;8.732;2023-06-22T11:28:48;17.88;;;7.10;;
33830;SDS011;20137;48.834;8.732;2023-06-22T11:31:14;11.55;;;6.40;;
33830;SDS011;20137;48.834;8.732;2023-06-22T11:33:40;10.50;;;6.30;;
33830;SDS011;20137;48.834;8.732;2023-06-22T11:36:06;16.70;;;6.35;;
33830;SDS011;20137;48.834;8.732;2023-06-22T11:38:32;19.42;;;6.93;;
33830;SDS011;20137;48.834;8.732;2023-06-22T11:40:58;15.60;;;6.50;;
33830;SDS011;20137;48.834;8.732;2023-06-22T11:43:28;16.15;;;6.10;;
33830;SDS011;20137;48.834;8.732;2023-06-22T11:45:54;16.98;;;6.72;;
33830;SDS011;20137;48.834;8.732;2023-06-22T11:48:21;17.52;;;6.63;;
33830;SDS011;20137;48.834;8.732;2023-06-22T11:50:46;14.18;;;6.22;;
33830;SDS011;20137;48.834;8.732;2023-06-22T11:53:12;15.80;;;6.78;;
33830;SDS011;20137;48.834;8.732;2023-06-22T11:55:41;15.10;;;5.90;;
33830;SDS011;20137;48.834;8.732;2023-06-22T11:58:07;10.60;;;6.18;;
33830;SDS011;20137;48.834;8.732;2023-06-22T12:00:33;14.30;;;6.10;;
33830;SDS011;20137;48.834;8.732;2023-06-22T12:02:59;18.30;;;7.07;;
33830;SDS011;20137;48.834;8.732;2023-06-22T12:05:24;15.88;;;6.90;;
33830;SDS011;20137;48.834;8.732;2023-06-22T12:07:54;13.88;;;7.45;;
33830;SDS011;20137;48.834;8.732;2023-06-22T12:10:20;14.48;;;6.03;;
33830;SDS011;20137;48.834;8.732;2023-06-22T12:12:48;14.38;;;6.45;;
33830;SDS011;20137;48.834;8.732;2023-06-22T12:15:14;12.90;;;6.50;;
33830;SDS011;20137;48.834;8.732;2023-06-22T12:17:42;15.55;;;6.47;;
33830;SDS011;20137;48.834;8.732;2023-06-22T12:20:08;9.95;;;6.10;;
33830;SDS011;20137;48.834;8.732;2023-06-22T12:22:35;18.08;;;7.32;;
33830;SDS011;20137;48.834;8.732;2023-06-22T12:25:02;14.70;;;6.50;;
33830;SDS011;20137;48.834;8.732;2023-06-22T12:27:29;17.23;;;6.47;;
33830;SDS011;20137;48.834;8.732;2023-06-22T12:29:57;19.63;;;6.55;;
33830;SDS011;20137;48.834;8.732;2023-06-22T12:32:23;14.18;;;6.38;;
33830;SDS011;20137;48.834;8.732;2023-06-22T12:34:50;13.75;;;6.45;;
33830;SDS011;20137;48.834;8.732;2023-06-22T12:37:16;15.43;;;6.20;;
33830;SDS011;20137;48.834;8.732;2023-06-22T12:39:41;17.77;;;6.30;;
33830;SDS011;20137;48.834;8.732;2023-06-22T12:42:07;14.85;;;6.78;;
33830;SDS011;20137;48.834;8.732;2023-06-22T12:44:40;14.93;;;6.35;;
33830;SDS011;20137;48.834;8.732;2023-06-22T12:47:06;15.35;;;6.00;;
33830;SDS011;20137;48.834;8.732;2023-06-22T12:49:33;15.27;;;5.82;;
33830;SDS011;20137;48.834;8.732;2023-06-22T12:52:00;15.40;;;6.45;;
33830;SDS011;20137;48.834;8.732;2023-06-22T12:54:26;15.85;;;6.85;;
33830;SDS011;20137;48.834;8.732;2023-06-22T12:56:52;13.35;;;6.20;;
33830;SDS011;20137;48.834;8.732;2023-06-22T12:59:18;14.65;;;7.03;;
33830;SDS011;20137;48.834;8.732;2023-06-22T13:01:47;14.50;;;6.82;;
33830;SDS011;20137;48.834;8.732;2023-06-22T13:04:13;12.80;;;6.65;;
33830;SDS011;20137;48.834;8.732;2023-06-22T13:06:42;12.32;;;6.03;;
33830;SDS011;20137;48.834;8.732;2023-06-22T13:09:09;14.15;;;7.13;;
33830;SDS011;20137;48.834;8.732;2023-06-22T13:11:35;17.20;;;6.85;;
33830;SDS011;20137;48.834;8.732;2023-06-22T13:14:02;16.17;;;7.47;;
33830;SDS011;20137;48.834;8.732;2023-06-22T13:16:27;16.67;;;7.13;;
33830;SDS011;20137;48.834;8.732;2023-06-22T13:18:53;13.25;;;6.95;;
33830;SDS011;20137;48.834;8.732;2023-06-22T13:21:19;15.68;;;7.93;;
33830;SDS011;20137;48.834;8.732;2023-06-22T13:23:44;16.35;;;7.70;;
33830;SDS011;20137;48.834;8.732;2023-06-22T13:26:10;16.13;;;7.07;;
33830;SDS011;20137;48.834;8.732;2023-06-22T13:28:36;11.40;;;7.25;;
33830;SDS011;20137;48.834;8.732;2023-06-22T13:31:02;15.57;;;7.50;;
33830;SDS011;20137;48.834;8.732;2023-06-22T13:33:28;15.48;;;7.28;;
33830;SDS011;20137;48.834;8.732;2023-06-22T13:35:54;16.05;;;6.80;;
33830;SDS011;20137;48.834;8.732;2023-06-22T13:38:22;16.88;;;6.88;;
33830;SDS011;20137;48.834;8.732;2023-06-22T13:40:48;17.05;;;7.10;;
33830;SDS011;20137;48.834;8.732;2023-06-22T13:43:14;16.35;;;6.65;;
33830;SDS011;20137;48.834;8.732;2023-06-22T13:45:41;18.05;;;5.22;;
33830;SDS011;20137;48.834;8.732;2023-06-22T13:48:06;15.25;;;4.38;;
33830;SDS011;20137;48.834;8.732;2023-06-22T13:50:32;19.67;;;4.55;;
33830;SDS011;20137;48.834;8.732;2023-06-22T13:52:58;15.48;;;3.85;;
33830;SDS011;20137;48.834;8.732;2023-06-22T13:55:24;12.98;;;4.15;;
33830;SDS011;20137;48.834;8.732;2023-06-22T13:57:49;17.08;;;4.30;;
33830;SDS011;20137;48.834;8.732;2023-06-22T14:00:16;11.00;;;3.97;;
33830;SDS011;20137;48.834;8.732;2023-06-22T14:02:42;21.10;;;3.83;;
33830;SDS011;20137;48.834;8.732;2023-06-22T14:05:08;18.42;;;4.05;;
33830;SDS011;20137;48.834;8.732;2023-06-22T14:07:34;12.82;;;4.05;;
33830;SDS011;20137;48.834;8.732;2023-06-22T14:10:00;12.60;;;3.90;;
33830;SDS011;20137;48.834;8.732;2023-06-22T14:12:26;19.75;;;4.28;;
33830;SDS011;20137;48.834;8.732;2023-06-22T14:14:52;17.02;;;4.63;;
33830;SDS011;20137;48.834;8.732;2023-06-22T14:17:18;16.45;;;4.03;;
33830;SDS011;20137;48.834;8.732;2023-06-22T14:19:52;19.35;;;4.45;;
33830;SDS011;20137;48.834;8.732;2023-06-22T14:22:19;16.58;;;4.20;;
33830;SDS011;20137;48.834;8.732;2023-06-22T14:24:45;16.00;;;4.30;;
33830;SDS011;20137;48.834;8.732;2023-06-22T14:27:12;13.95;;;4.35;;
33830;SDS011;20137;48.834;8.732;2023-06-22T14:29:37;16.83;;;3.80;;
33830;SDS011;20137;48.834;8.732;2023-06-22T14:32:03;18.83;;;3.90;;
33830;SDS011;20137;48.834;8.732;2023-06-22T14:34:31;14.25;;;4.07;;